sensor_id;sensor_type;location;lat;lon;timestamp;P1;durP1;ratioP1;P2;durP2;ratioP2
52396;SDS011;38322;53.108;6.308;2023-04-24T05:03:36;1.30;;;0.70;;
52396;SDS011;38322;53.108;6.308;2023-04-24T05:06:02;1.00;;;0.70;;
52396;SDS011;38322;53.108;6.308;2023-04-24T05:08:28;1.00;;;0.60;;
52396;SDS011;38322;53.108;6.308;2023-04-24T05:10:54;1.70;;;0.90;;
52396;SDS011;38322;53.108;6.308;2023-04-24T05:13:20;1.40;;;1.05;;
52396;SDS011;38322;53.108;6.308;2023-04-24T05:15:46;2.17;;;1.17;;
52396;SDS011;38322;53.108;6.308;2023-04-24T05:18:12;1.33;;;1.13;;
52396;SDS011;38322;53.108;6.308;2023-04-24T05:20:37;1.58;;;0.88;;
52396;SDS011;38322;53.108;6.308;2023-04-24T05:23:03;1.60;;;0.90;;
52396;SDS011;38322;53.108;6.308;2023-04-24T05:25:29;1.35;;;0.82;;
52396;SDS011;38322;53.108;6.308;2023-04-24T05:28:00;1.63;;;0.88;;
52396;SDS011;38322;53.108;6.308;2023-04-24T05:30:26;1.30;;;1.15;;
52396;SDS011;38322;53.108;6.308;2023-04-24T05:32:52;3.10;;;0.82;;
52396;SDS011;38322;53.108;6.308;2023-04-24T05:35:18;1.08;;;0.52;;
52396;SDS011;38322;53.108;6.308;2023-04-24T05:37:44;2.10;;;1.15;;
52396;SDS011;38322;53.108;6.308;2023-04-24T05:40:10;2.30;;;0.77;;
52396;SDS011;38322;53.108;6.308;2023-04-24T05:42:36;1.45;;;0.77;;
52396;SDS011;38322;53.108;6.308;2023-04-24T05:45:02;1.95;;;0.90;;
52396;SDS011;38322;53.108;6.308;2023-04-24T05:47:29;1.90;;;0.98;;
52396;SDS011;38322;53.108;6.308;2023-04-24T05:49:55;1.98;;;0.75;;
52396;SDS011;38322;53.108;6.308;2023-04-24T05:52:21;2.20;;;1.35;;
52396;SDS011;38322;53.108;6.308;2023-04-24T05:54:46;2.08;;;1.20;;
52396;SDS011;38322;53.108;6.308;2023-04-24T05:57:12;4.47;;;1.70;;
52396;SDS011;38322;53.108;6.308;2023-04-24T05:59:38;3.33;;;1.77;;
52396;SDS011;38322;53.108;6.308;2023-04-24T06:02:05;3.72;;;2.00;;
52396;SDS011;38322;53.108;6.308;2023-04-24T06:04:32;4.18;;;2.75;;
52396;SDS011;38322;53.108;6.308;2023-04-24T06:06:58;3.15;;;1.73;;
52396;SDS011;38322;53.108;6.308;2023-04-24T06:09:25;4.20;;;2.22;;
52396;SDS011;38322;53.108;6.308;2023-04-24T06:11:51;6.47;;;2.58;;
52396;SDS011;38322;53.108;6.308;2023-04-24T06:14:18;3.75;;;2.65;;
52396;SDS011;38322;53.108;6.308;2023-04-24T06:16:45;5.35;;;2.90;;
52396;SDS011;38322;53.108;6.308;2023-04-24T06:19:10;5.43;;;2.22;;
52396;SDS011;38322;53.108;6.308;2023-04-24T06:21:36;3.78;;;2.38;;
52396;SDS011;38322;53.108;6.308;2023-04-24T06:24:02;4.18;;;2.83;;
52396;SDS011;38322;53.108;6.308;2023-04-24T06:26:30;5.30;;;2.65;;
52396;SDS011;38322;53.108;6.308;2023-04-24T06:28:56;3.55;;;2.22;;
52396;SDS011;38322;53.108;6.308;2023-04-24T06:31:24;4.43;;;2.25;;
52396;SDS011;38322;53.108;6.308;2023-04-24T06:33:50;5.85;;;2.42;;
52396;SDS011;38322;53.108;6.308;2023-04-24T06:36:15;3.80;;;2.03;;
52396;SDS011;38322;53.108;6.308;2023-04-24T06:38:42;2.40;;;2.05;;
52396;SDS011;38322;53.108;6.308;2023-04-24T06:41:07;2.72;;;2.13;;
52396;SDS011;38322;53.108;6.308;2023-04-24T06:43:34;1.92;;;1.73;;
52396;SDS011;38322;53.108;6.308;2023-04-24T06:46:00;5.75;;;1.20;;
52396;SDS011;38322;53.108;6.308;2023-04-24T06:48:28;4.22;;;0.85;;
52396;SDS011;38322;53.108;6.308;2023-04-24T06:50:54;3.30;;;1.42;;
52396;SDS011;38322;53.108;6.308;2023-04-24T06:53:20;4.88;;;1.05;;
52396;SDS011;38322;53.108;6.308;2023-04-24T06:55:46;3.28;;;0.70;;
52396;SDS011;38322;53.108;6.308;2023-04-24T06:58:12;2.22;;;0.60;;
52396;SDS011;38322;53.108;6.308;2023-04-24T07:00:38;2.15;;;0.60;;
52396;SDS011;38322;53.108;6.308;2023-04-24T07:03:04;0.85;;;0.45;;
52396;SDS011;38322;53.108;6.308;2023-04-24T07:05:31;3.47;;;0.45;;
52396;SDS011;38322;53.108;6.308;2023-04-24T07:07:58;3.13;;;0.73;;
52396;SDS011;38322;53.108;6.308;2023-04-24T07:10:25;4.18;;;1.35;;
52396;SDS011;38322;53.108;6.308;2023-04-24T07:12:54;1.58;;;1.00;;
52396;SDS011;38322;53.108;6.308;2023-04-24T07:15:21;2.78;;;0.93;;
52396;SDS011;38322;53.108;6.308;2023-04-24T07:17:47;3.67;;;1.00;;
52396;SDS011;38322;53.108;6.308;2023-04-24T07:20:13;2.00;;;0.70;;
52396;SDS011;38322;53.108;6.308;2023-04-24T07:22:39;2.00;;;0.35;;
52396;SDS011;38322;53.108;6.308;2023-04-24T07:25:06;2.75;;;0.52;;
52396;SDS011;38322;53.108;6.308;2023-04-24T07:27:33;1.50;;;0.93;;
52396;SDS011;38322;53.108;6.308;2023-04-24T07:29:59;2.03;;;1.20;;
52396;SDS011;38322;53.108;6.308;2023-04-24T07:32:27;3.15;;;1.38;;
52396;SDS011;38322;53.108;6.308;2023-04-24T07:34:52;2.80;;;0.82;;
52396;SDS011;38322;53.108;6.308;2023-04-24T07:37:18;5.57;;;2.95;;
52396;SDS011;38322;53.108;6.308;2023-04-24T07:39:44;6.75;;;3.38;;
52396;SDS011;38322;53.108;6.308;2023-04-24T07:42:10;6.47;;;3.63;;
52396;SDS011;38322;53.108;6.308;2023-04-24T07:44:36;8.18;;;5.93;;
52396;SDS011;38322;53.108;6.308;2023-04-24T07:47:02;9.52;;;6.00;;
52396;SDS011;38322;53.108;6.308;2023-04-24T07:49:28;11.13;;;6.15;;
52396;SDS011;38322;53.108;6.308;2023-04-24T07:51:53;15.02;;;9.68;;
52396;SDS011;38322;53.108;6.308;2023-04-24T07:54:19;15.73;;;9.63;;
52396;SDS011;38322;53.108;6.308;2023-04-24T07:56:45;20.38;;;9.95;;
52396;SDS011;38322;53.108;6.308;2023-04-24T07:59:11;15.30;;;10.30;;
52396;SDS011;38322;53.108;6.308;2023-04-24T08:01:37;18.00;;;10.30;;
52396;SDS011;38322;53.108;6.308;2023-04-24T08:04:03;23.77;;;10.80;;
52396;SDS011;38322;53.108;6.308;2023-04-24T08:06:29;19.35;;;8.05;;
52396;SDS011;38322;53.108;6.308;2023-04-24T08:08:55;15.80;;;9.15;;
52396;SDS011;38322;53.108;6.308;2023-04-24T08:11:22;14.10;;;8.63;;
52396;SDS011;38322;53.108;6.308;2023-04-24T08:13:47;18.33;;;10.40;;
52396;SDS011;38322;53.108;6.308;2023-04-24T08:16:13;16.75;;;10.23;;
52396;SDS011;38322;53.108;6.308;2023-04-24T08:18:39;13.07;;;7.90;;
52396;SDS011;38322;53.108;6.308;2023-04-24T08:21:05;13.55;;;10.90;;
52396;SDS011;38322;53.108;6.308;2023-04-24T08:23:31;13.95;;;10.45;;
52396;SDS011;38322;53.108;6.308;2023-04-24T08:25:57;18.48;;;11.18;;
52396;SDS011;38322;53.108;6.308;2023-04-24T08:28:23;15.07;;;10.13;;
52396;SDS011;38322;53.108;6.308;2023-04-24T08:30:49;16.38;;;10.25;;
52396;SDS011;38322;53.108;6.308;2023-04-24T08:33:21;20.05;;;11.45;;
52396;SDS011;38322;53.108;6.308;2023-04-24T08:35:48;15.73;;;10.30;;
52396;SDS011;38322;53.108;6.308;2023-04-24T08:38:14;16.27;;;11.55;;
52396;SDS011;38322;53.108;6.308;2023-04-24T08:40:40;19.17;;;9.68;;
52396;SDS011;38322;53.108;6.308;2023-04-24T08:43:06;18.27;;;10.57;;
52396;SDS011;38322;53.108;6.308;2023-04-24T08:45:33;17.50;;;10.23;;
52396;SDS011;38322;53.108;6.308;2023-04-24T08:47:59;16.58;;;11.68;;
52396;SDS011;38322;53.108;6.308;2023-04-24T08:50:25;16.00;;;10.45;;
52396;SDS011;38322;53.108;6.308;2023-04-24T08:52:51;16.23;;;9.57;;
52396;SDS011;38322;53.108;6.308;2023-04-24T08:55:19;13.07;;;7.78;;
52396;SDS011;38322;53.108;6.308;2023-04-24T08:57:50;13.77;;;8.50;;
52396;SDS011;38322;53.108;6.308;2023-04-24T09:00:18;11.13;;;8.00;;
52396;SDS011;38322;53.108;6.308;2023-04-24T09:02:45;11.20;;;7.53;;
52396;SDS011;38322;53.108;6.308;2023-04-24T09:05:13;10.25;;;7.25;;
52396;SDS011;38322;53.108;6.308;2023-04-24T09:07:41;10.50;;;8.00;;
52396;SDS011;38322;53.108;6.308;2023-04-24T09:10:11;6.25;;;5.28;;
52396;SDS011;38322;53.108;6.308;2023-04-24T09:12:37;10.52;;;5.97;;
52396;SDS011;38322;53.108;6.308;2023-04-24T09:15:03;7.55;;;5.70;;
52396;SDS011;38322;53.108;6.308;2023-04-24T09:17:32;9.35;;;5.40;;
52396;SDS011;38322;53.108;6.308;2023-04-24T09:19:59;13.02;;;5.43;;
52396;SDS011;38322;53.108;6.308;2023-04-24T09:22:25;7.32;;;6.13;;
52396;SDS011;38322;53.108;6.308;2023-04-24T09:25:01;8.07;;;5.10;;
52396;SDS011;38322;53.108;6.308;2023-04-24T09:27:30;6.97;;;5.55;;
52396;SDS011;38322;53.108;6.308;2023-04-24T09:29:57;13.10;;;6.95;;
52396;SDS011;38322;53.108;6.308;2023-04-24T09:32:23;8.73;;;5.78;;
52396;SDS011;38322;53.108;6.308;2023-04-24T09:35:07;12.60;;;6.07;;
52396;SDS011;38322;53.108;6.308;2023-04-24T09:37:35;13.00;;;5.70;;
52396;SDS011;38322;53.108;6.308;2023-04-24T09:40:09;9.75;;;4.43;;
52396;SDS011;38322;53.108;6.308;2023-04-24T09:42:37;5.88;;;3.10;;
52396;SDS011;38322;53.108;6.308;2023-04-24T09:45:04;5.80;;;2.47;;
52396;SDS011;38322;53.108;6.308;2023-04-24T09:47:36;9.85;;;3.20;;
52396;SDS011;38322;53.108;6.308;2023-04-24T09:50:14;5.65;;;2.35;;
52396;SDS011;38322;53.108;6.308;2023-04-24T09:52:42;10.30;;;3.15;;
52396;SDS011;38322;53.108;6.308;2023-04-24T09:55:11;10.05;;;3.60;;
52396;SDS011;38322;53.108;6.308;2023-04-24T10:02:56;9.18;;;3.95;;
52396;SDS011;38322;53.108;6.308;2023-04-24T10:05:23;8.77;;;2.67;;
52396;SDS011;38322;53.108;6.308;2023-04-24T10:07:52;10.65;;;2.90;;
52396;SDS011;38322;53.108;6.308;2023-04-24T10:10:22;6.47;;;3.28;;
52396;SDS011;38322;53.108;6.308;2023-04-24T10:12:48;10.15;;;3.08;;
52396;SDS011;38322;53.108;6.308;2023-04-24T10:15:15;6.93;;;2.58;;
52396;SDS011;38322;53.108;6.308;2023-04-24T10:17:47;7.25;;;1.80;;
52396;SDS011;38322;53.108;6.308;2023-04-24T10:20:21;5.25;;;2.38;;
52396;SDS011;38322;53.108;6.308;2023-04-24T10:22:49;7.28;;;2.42;;
52396;SDS011;38322;53.108;6.308;2023-04-24T10:25:17;9.48;;;1.80;;
52396;SDS011;38322;53.108;6.308;2023-04-24T10:27:46;3.75;;;1.95;;
52396;SDS011;38322;53.108;6.308;2023-04-24T10:30:13;7.03;;;1.73;;
52396;SDS011;38322;53.108;6.308;2023-04-24T10:32:39;8.13;;;1.92;;
52396;SDS011;38322;53.108;6.308;2023-04-24T10:35:07;7.78;;;1.48;;
52396;SDS011;38322;53.108;6.308;2023-04-24T10:37:35;6.55;;;1.20;;
52396;SDS011;38322;53.108;6.308;2023-04-24T10:40:03;7.82;;;3.08;;
52396;SDS011;38322;53.108;6.308;2023-04-24T10:42:30;5.05;;;1.83;;
52396;SDS011;38322;53.108;6.308;2023-04-24T10:44:56;6.95;;;1.55;;
52396;SDS011;38322;53.108;6.308;2023-04-24T10:47:23;4.75;;;1.45;;
52396;SDS011;38322;53.108;6.308;2023-04-24T10:49:50;4.50;;;1.35;;
52396;SDS011;38322;53.108;6.308;2023-04-24T10:52:16;7.30;;;1.60;;
52396;SDS011;38322;53.108;6.308;2023-04-24T10:54:44;9.57;;;2.20;;
52396;SDS011;38322;53.108;6.308;2023-04-24T10:57:27;4.80;;;1.02;;
52396;SDS011;38322;53.108;6.308;2023-04-24T11:02:41;4.63;;;1.20;;
52396;SDS011;38322;53.108;6.308;2023-04-24T11:05:20;6.32;;;1.38;;
52396;SDS011;38322;53.108;6.308;2023-04-24T11:10:39;7.75;;;1.38;;
52396;SDS011;38322;53.108;6.308;2023-04-24T11:13:06;8.13;;;1.40;;
52396;SDS011;38322;53.108;6.308;2023-04-24T11:15:32;7.15;;;1.38;;
52396;SDS011;38322;53.108;6.308;2023-04-24T11:17:57;9.05;;;2.15;;
52396;SDS011;38322;53.108;6.308;2023-04-24T11:20:23;7.85;;;1.77;;
52396;SDS011;38322;53.108;6.308;2023-04-24T11:22:52;4.57;;;0.88;;
52396;SDS011;38322;53.108;6.308;2023-04-24T11:25:20;5.35;;;1.48;;
52396;SDS011;38322;53.108;6.308;2023-04-24T11:27:47;3.40;;;0.85;;
52396;SDS011;38322;53.108;6.308;2023-04-24T11:30:21;5.22;;;0.88;;
52396;SDS011;38322;53.108;6.308;2023-04-24T11:32:47;5.25;;;0.70;;
52396;SDS011;38322;53.108;6.308;2023-04-24T11:37:47;2.50;;;0.65;;
52396;SDS011;38322;53.108;6.308;2023-04-24T11:40:14;2.75;;;0.65;;
52396;SDS011;38322;53.108;6.308;2023-04-24T11:42:43;6.28;;;1.13;;
52396;SDS011;38322;53.108;6.308;2023-04-24T11:45:11;10.35;;;1.55;;
52396;SDS011;38322;53.108;6.308;2023-04-24T11:47:38;7.00;;;1.88;;
52396;SDS011;38322;53.108;6.308;2023-04-24T11:50:06;4.53;;;1.15;;
52396;SDS011;38322;53.108;6.308;2023-04-24T11:52:36;8.40;;;1.38;;
52396;SDS011;38322;53.108;6.308;2023-04-24T11:55:03;6.82;;;0.82;;
52396;SDS011;38322;53.108;6.308;2023-04-24T11:57:31;9.70;;;1.60;;
52396;SDS011;38322;53.108;6.308;2023-04-24T12:00:00;8.73;;;1.08;;
52396;SDS011;38322;53.108;6.308;2023-04-24T12:02:27;4.55;;;0.60;;
52396;SDS011;38322;53.108;6.308;2023-04-24T12:04:53;4.82;;;1.17;;
52396;SDS011;38322;53.108;6.308;2023-04-24T12:07:21;6.05;;;1.50;;
52396;SDS011;38322;53.108;6.308;2023-04-24T12:09:55;8.77;;;1.10;;
52396;SDS011;38322;53.108;6.308;2023-04-24T12:12:24;7.15;;;1.50;;
52396;SDS011;38322;53.108;6.308;2023-04-24T12:14:52;7.68;;;0.73;;
52396;SDS011;38322;53.108;6.308;2023-04-24T12:17:27;3.72;;;0.60;;
52396;SDS011;38322;53.108;6.308;2023-04-24T12:22:26;10.02;;;1.92;;
52396;SDS011;38322;53.108;6.308;2023-04-24T12:24:57;3.58;;;0.45;;
52396;SDS011;38322;53.108;6.308;2023-04-24T12:27:24;3.22;;;0.70;;
52396;SDS011;38322;53.108;6.308;2023-04-24T12:29:51;9.60;;;0.50;;
52396;SDS011;38322;53.108;6.308;2023-04-24T12:32:18;3.38;;;0.40;;
52396;SDS011;38322;53.108;6.308;2023-04-24T12:34:44;10.23;;;0.98;;
52396;SDS011;38322;53.108;6.308;2023-04-24T12:37:10;3.83;;;0.70;;
52396;SDS011;38322;53.108;6.308;2023-04-24T12:39:37;8.82;;;0.70;;
52396;SDS011;38322;53.108;6.308;2023-04-24T12:42:03;5.90;;;0.85;;
52396;SDS011;38322;53.108;6.308;2023-04-24T12:44:29;2.58;;;0.55;;
52396;SDS011;38322;53.108;6.308;2023-04-24T12:46:56;2.58;;;0.47;;
52396;SDS011;38322;53.108;6.308;2023-04-24T12:49:23;5.30;;;1.10;;
52396;SDS011;38322;53.108;6.308;2023-04-24T12:51:48;7.15;;;1.48;;
52396;SDS011;38322;53.108;6.308;2023-04-24T12:54:14;2.70;;;0.80;;
52396;SDS011;38322;53.108;6.308;2023-04-24T12:56:40;1.50;;;0.25;;
52396;SDS011;38322;53.108;6.308;2023-04-24T12:59:06;7.18;;;0.70;;
52396;SDS011;38322;53.108;6.308;2023-04-24T13:01:31;4.95;;;0.85;;
52396;SDS011;38322;53.108;6.308;2023-04-24T13:03:58;5.95;;;0.50;;
52396;SDS011;38322;53.108;6.308;2023-04-24T13:06:23;1.92;;;0.20;;
52396;SDS011;38322;53.108;6.308;2023-04-24T13:08:49;2.38;;;0.20;;
52396;SDS011;38322;53.108;6.308;2023-04-24T13:11:16;1.95;;;0.10;;
52396;SDS011;38322;53.108;6.308;2023-04-24T13:13:42;2.72;;;0.47;;
52396;SDS011;38322;53.108;6.308;2023-04-24T13:16:08;2.53;;;0.55;;
52396;SDS011;38322;53.108;6.308;2023-04-24T13:18:34;7.43;;;0.60;;
52396;SDS011;38322;53.108;6.308;2023-04-24T13:21:00;1.83;;;0.20;;
52396;SDS011;38322;53.108;6.308;2023-04-24T13:23:26;4.95;;;0.28;;
52396;SDS011;38322;53.108;6.308;2023-04-24T13:25:53;5.97;;;0.15;;
52396;SDS011;38322;53.108;6.308;2023-04-24T13:28:22;0.63;;;0.20;;
52396;SDS011;38322;53.108;6.308;2023-04-24T13:30:49;1.65;;;0.10;;
52396;SDS011;38322;53.108;6.308;2023-04-24T13:33:16;0.40;;;0.10;;
52396;SDS011;38322;53.108;6.308;2023-04-24T13:35:41;3.35;;;0.50;;
52396;SDS011;38322;53.108;6.308;2023-04-24T13:38:07;3.05;;;0.50;;
52396;SDS011;38322;53.108;6.308;2023-04-24T13:40:33;5.82;;;0.25;;
52396;SDS011;38322;53.108;6.308;2023-04-24T13:42:59;2.65;;;0.38;;
52396;SDS011;38322;53.108;6.308;2023-04-24T13:45:25;4.20;;;0.30;;
52396;SDS011;38322;53.108;6.308;2023-04-24T13:47:52;1.58;;;0.40;;
52396;SDS011;38322;53.108;6.308;2023-04-24T13:50:19;4.85;;;0.60;;
52396;SDS011;38322;53.108;6.308;2023-04-24T13:52:45;4.07;;;0.52;;
52396;SDS011;38322;53.108;6.308;2023-04-24T13:55:11;5.60;;;0.90;;
52396;SDS011;38322;53.108;6.308;2023-04-24T13:57:37;7.97;;;1.20;;
52396;SDS011;38322;53.108;6.308;2023-04-24T14:00:03;8.88;;;1.42;;
52396;SDS011;38322;53.108;6.308;2023-04-24T14:05:01;5.57;;;1.63;;
52396;SDS011;38322;53.108;6.308;2023-04-24T14:07:28;4.15;;;1.05;;
52396;SDS011;38322;53.108;6.308;2023-04-24T14:09:54;6.10;;;1.85;;
52396;SDS011;38322;53.108;6.308;2023-04-24T14:12:20;9.38;;;1.33;;
52396;SDS011;38322;53.108;6.308;2023-04-24T14:14:46;5.30;;;0.80;;
52396;SDS011;38322;53.108;6.308;2023-04-24T14:17:13;7.10;;;1.00;;
52396;SDS011;38322;53.108;6.308;2023-04-24T14:19:39;6.20;;;1.23;;
52396;SDS011;38322;53.108;6.308;2023-04-24T14:22:05;5.63;;;1.30;;
52396;SDS011;38322;53.108;6.308;2023-04-24T14:24:31;5.22;;;1.00;;
52396;SDS011;38322;53.108;6.308;2023-04-24T14:26:57;13.55;;;1.77;;
52396;SDS011;38322;53.108;6.308;2023-04-24T14:29:22;6.20;;;1.08;;
52396;SDS011;38322;53.108;6.308;2023-04-24T14:31:49;5.60;;;1.52;;
52396;SDS011;38322;53.108;6.308;2023-04-24T14:34:15;9.43;;;1.80;;
52396;SDS011;38322;53.108;6.308;2023-04-24T14:36:41;9.32;;;1.58;;
52396;SDS011;38322;53.108;6.308;2023-04-24T14:39:07;7.90;;;1.48;;
52396;SDS011;38322;53.108;6.308;2023-04-24T14:41:33;10.85;;;2.88;;
52396;SDS011;38322;53.108;6.308;2023-04-24T14:44:01;11.63;;;1.73;;
52396;SDS011;38322;53.108;6.308;2023-04-24T14:46:28;13.65;;;3.33;;
52396;SDS011;38322;53.108;6.308;2023-04-24T14:48:55;9.00;;;1.85;;
52396;SDS011;38322;53.108;6.308;2023-04-24T14:51:22;15.65;;;1.50;;
52396;SDS011;38322;53.108;6.308;2023-04-24T14:53:48;8.77;;;1.70;;
52396;SDS011;38322;53.108;6.308;2023-04-24T14:56:13;10.02;;;2.78;;
52396;SDS011;38322;53.108;6.308;2023-04-24T14:58:40;8.48;;;1.70;;
52396;SDS011;38322;53.108;6.308;2023-04-24T15:01:06;8.93;;;1.88;;
52396;SDS011;38322;53.108;6.308;2023-04-24T15:03:31;14.40;;;2.30;;
52396;SDS011;38322;53.108;6.308;2023-04-24T15:05:57;12.50;;;1.92;;
52396;SDS011;38322;53.108;6.308;2023-04-24T15:08:23;11.38;;;2.50;;
52396;SDS011;38322;53.108;6.308;2023-04-24T15:10:49;8.25;;;1.75;;
52396;SDS011;38322;53.108;6.308;2023-04-24T15:13:15;11.80;;;2.28;;
52396;SDS011;38322;53.108;6.308;2023-04-24T15:15:41;10.48;;;2.42;;
52396;SDS011;38322;53.108;6.308;2023-04-24T15:18:07;6.88;;;2.65;;
52396;SDS011;38322;53.108;6.308;2023-04-24T15:20:35;19.40;;;3.00;;
52396;SDS011;38322;53.108;6.308;2023-04-24T15:23:01;5.80;;;2.63;;
52396;SDS011;38322;53.108;6.308;2023-04-24T15:25:27;7.45;;;2.22;;
52396;SDS011;38322;53.108;6.308;2023-04-24T15:27:54;6.13;;;2.28;;
52396;SDS011;38322;53.108;6.308;2023-04-24T15:30:20;8.18;;;1.80;;
52396;SDS011;38322;53.108;6.308;2023-04-24T15:32:46;9.68;;;3.28;;
52396;SDS011;38322;53.108;6.308;2023-04-24T15:35:12;12.60;;;2.97;;
52396;SDS011;38322;53.108;6.308;2023-04-24T15:37:38;8.10;;;3.30;;
52396;SDS011;38322;53.108;6.308;2023-04-24T15:40:04;9.90;;;2.33;;
52396;SDS011;38322;53.108;6.308;2023-04-24T15:42:32;10.63;;;1.98;;
52396;SDS011;38322;53.108;6.308;2023-04-24T15:44:57;8.68;;;2.47;;
52396;SDS011;38322;53.108;6.308;2023-04-24T15:47:24;11.07;;;3.20;;
52396;SDS011;38322;53.108;6.308;2023-04-24T15:49:51;13.20;;;2.78;;
52396;SDS011;38322;53.108;6.308;2023-04-24T15:52:18;11.85;;;2.75;;
52396;SDS011;38322;53.108;6.308;2023-04-24T15:54:43;10.00;;;2.35;;
52396;SDS011;38322;53.108;6.308;2023-04-24T15:57:09;7.28;;;3.42;;
52396;SDS011;38322;53.108;6.308;2023-04-24T15:59:37;9.43;;;3.05;;
52396;SDS011;38322;53.108;6.308;2023-04-24T16:02:03;11.73;;;3.30;;
52396;SDS011;38322;53.108;6.308;2023-04-24T16:04:29;10.80;;;3.22;;
52396;SDS011;38322;53.108;6.308;2023-04-24T16:06:55;11.07;;;3.53;;
52396;SDS011;38322;53.108;6.308;2023-04-24T16:09:22;11.15;;;3.25;;
52396;SDS011;38322;53.108;6.308;2023-04-24T16:11:47;10.23;;;3.28;;
52396;SDS011;38322;53.108;6.308;2023-04-24T16:14:13;14.85;;;2.80;;
52396;SDS011;38322;53.108;6.308;2023-04-24T16:16:39;10.13;;;2.80;;
52396;SDS011;38322;53.108;6.308;2023-04-24T16:19:05;4.93;;;2.60;;
52396;SDS011;38322;53.108;6.308;2023-04-24T16:21:32;6.57;;;2.35;;
52396;SDS011;38322;53.108;6.308;2023-04-24T16:23:58;9.90;;;2.40;;
52396;SDS011;38322;53.108;6.308;2023-04-24T16:26:24;9.73;;;2.78;;
52396;SDS011;38322;53.108;6.308;2023-04-24T16:28:50;13.00;;;3.33;;
52396;SDS011;38322;53.108;6.308;2023-04-24T16:31:16;8.68;;;3.10;;
52396;SDS011;38322;53.108;6.308;2023-04-24T16:33:42;13.13;;;3.40;;
52396;SDS011;38322;53.108;6.308;2023-04-24T16:36:08;12.35;;;2.53;;
52396;SDS011;38322;53.108;6.308;2023-04-24T16:38:34;10.70;;;3.20;;
52396;SDS011;38322;53.108;6.308;2023-04-24T16:41:00;8.27;;;3.42;;
52396;SDS011;38322;53.108;6.308;2023-04-24T16:43:26;10.30;;;3.17;;
52396;SDS011;38322;53.108;6.308;2023-04-24T16:45:52;9.95;;;3.15;;
52396;SDS011;38322;53.108;6.308;2023-04-24T16:48:18;7.80;;;2.40;;
52396;SDS011;38322;53.108;6.308;2023-04-24T16:50:44;9.93;;;2.75;;
52396;SDS011;38322;53.108;6.308;2023-04-24T16:53:10;10.07;;;3.67;;
52396;SDS011;38322;53.108;6.308;2023-04-24T16:55:36;9.68;;;2.05;;
52396;SDS011;38322;53.108;6.308;2023-04-24T16:58:02;8.10;;;2.85;;
52396;SDS011;38322;53.108;6.308;2023-04-24T17:00:28;12.70;;;2.05;;
52396;SDS011;38322;53.108;6.308;2023-04-24T17:02:54;5.95;;;1.90;;
52396;SDS011;38322;53.108;6.308;2023-04-24T17:05:20;9.23;;;2.75;;
52396;SDS011;38322;53.108;6.308;2023-04-24T17:07:48;8.48;;;2.40;;
52396;SDS011;38322;53.108;6.308;2023-04-24T17:10:14;6.78;;;1.67;;
52396;SDS011;38322;53.108;6.308;2023-04-24T17:12:40;5.75;;;1.27;;
52396;SDS011;38322;53.108;6.308;2023-04-24T17:15:06;14.00;;;3.10;;
52396;SDS011;38322;53.108;6.308;2023-04-24T17:17:32;4.13;;;1.63;;
52396;SDS011;38322;53.108;6.308;2023-04-24T17:19:58;12.18;;;2.33;;
52396;SDS011;38322;53.108;6.308;2023-04-24T17:22:24;4.70;;;1.75;;
52396;SDS011;38322;53.108;6.308;2023-04-24T17:24:50;4.88;;;1.35;;
52396;SDS011;38322;53.108;6.308;2023-04-24T17:27:16;10.95;;;2.45;;
52396;SDS011;38322;53.108;6.308;2023-04-24T17:29:42;6.25;;;2.65;;
52396;SDS011;38322;53.108;6.308;2023-04-24T17:32:08;6.72;;;2.00;;
52396;SDS011;38322;53.108;6.308;2023-04-24T17:34:34;3.40;;;2.00;;
52396;SDS011;38322;53.108;6.308;2023-04-24T17:37:00;5.93;;;1.52;;
52396;SDS011;38322;53.108;6.308;2023-04-24T17:39:26;4.70;;;1.10;;
52396;SDS011;38322;53.108;6.308;2023-04-24T17:41:52;4.00;;;1.85;;
52396;SDS011;38322;53.108;6.308;2023-04-24T17:44:18;8.32;;;0.77;;
52396;SDS011;38322;53.108;6.308;2023-04-24T17:46:44;3.67;;;1.48;;
52396;SDS011;38322;53.108;6.308;2023-04-24T17:49:10;4.40;;;0.85;;
52396;SDS011;38322;53.108;6.308;2023-04-24T17:51:36;3.97;;;1.63;;
52396;SDS011;38322;53.108;6.308;2023-04-24T17:54:01;6.05;;;1.60;;
52396;SDS011;38322;53.108;6.308;2023-04-24T17:56:27;2.40;;;1.23;;
52396;SDS011;38322;53.108;6.308;2023-04-24T17:58:53;6.63;;;1.25;;
52396;SDS011;38322;53.108;6.308;2023-04-24T18:01:19;4.85;;;1.30;;
52396;SDS011;38322;53.108;6.308;2023-04-24T18:03:45;7.70;;;1.30;;
52396;SDS011;38322;53.108;6.308;2023-04-24T18:06:11;4.18;;;1.80;;
52396;SDS011;38322;53.108;6.308;2023-04-24T18:08:41;5.18;;;1.30;;
52396;SDS011;38322;53.108;6.308;2023-04-24T18:11:07;2.63;;;1.70;;
52396;SDS011;38322;53.108;6.308;2023-04-24T18:13:33;4.60;;;1.90;;
52396;SDS011;38322;53.108;6.308;2023-04-24T18:15:59;4.10;;;1.85;;
52396;SDS011;38322;53.108;6.308;2023-04-24T18:18:25;11.13;;;2.97;;
52396;SDS011;38322;53.108;6.308;2023-04-24T18:20:51;4.75;;;1.77;;
52396;SDS011;38322;53.108;6.308;2023-04-24T18:23:17;4.78;;;2.28;;
52396;SDS011;38322;53.108;6.308;2023-04-24T18:25:43;10.38;;;2.42;;
52396;SDS011;38322;53.108;6.308;2023-04-24T18:28:09;7.53;;;2.28;;
52396;SDS011;38322;53.108;6.308;2023-04-24T18:30:35;8.35;;;2.05;;
52396;SDS011;38322;53.108;6.308;2023-04-24T18:33:01;6.82;;;2.03;;
52396;SDS011;38322;53.108;6.308;2023-04-24T18:35:27;6.03;;;2.33;;
52396;SDS011;38322;53.108;6.308;2023-04-24T18:37:53;5.47;;;1.40;;
52396;SDS011;38322;53.108;6.308;2023-04-24T18:40:19;7.95;;;2.17;;
52396;SDS011;38322;53.108;6.308;2023-04-24T18:42:45;4.50;;;1.73;;
52396;SDS011;38322;53.108;6.308;2023-04-24T18:45:11;8.32;;;2.17;;
52396;SDS011;38322;53.108;6.308;2023-04-24T18:47:37;8.77;;;2.45;;
52396;SDS011;38322;53.108;6.308;2023-04-24T18:50:03;6.25;;;2.35;;
52396;SDS011;38322;53.108;6.308;2023-04-24T18:52:30;7.00;;;1.83;;
52396;SDS011;38322;53.108;6.308;2023-04-24T18:54:55;6.22;;;1.80;;
52396;SDS011;38322;53.108;6.308;2023-04-24T18:57:21;6.60;;;1.80;;
52396;SDS011;38322;53.108;6.308;2023-04-24T18:59:47;10.20;;;2.10;;
52396;SDS011;38322;53.108;6.308;2023-04-24T19:02:14;9.68;;;2.75;;
52396;SDS011;38322;53.108;6.308;2023-04-24T19:04:40;9.13;;;2.38;;
52396;SDS011;38322;53.108;6.308;2023-04-24T19:07:06;13.85;;;2.40;;
52396;SDS011;38322;53.108;6.308;2023-04-24T19:09:32;10.05;;;2.60;;
52396;SDS011;38322;53.108;6.308;2023-04-24T19:11:58;10.10;;;2.85;;
52396;SDS011;38322;53.108;6.308;2023-04-24T19:14:26;11.88;;;2.05;;
52396;SDS011;38322;53.108;6.308;2023-04-24T19:16:52;9.15;;;2.88;;
52396;SDS011;38322;53.108;6.308;2023-04-24T19:19:18;6.75;;;2.25;;
52396;SDS011;38322;53.108;6.308;2023-04-24T19:21:44;20.35;;;2.78;;
52396;SDS011;38322;53.108;6.308;2023-04-24T19:24:11;6.30;;;2.60;;
52396;SDS011;38322;53.108;6.308;2023-04-24T19:26:37;8.32;;;2.30;;
52396;SDS011;38322;53.108;6.308;2023-04-24T19:29:03;6.60;;;2.05;;
52396;SDS011;38322;53.108;6.308;2023-04-24T19:31:29;7.15;;;2.65;;
52396;SDS011;38322;53.108;6.308;2023-04-24T19:33:55;12.65;;;2.45;;
52396;SDS011;38322;53.108;6.308;2023-04-24T19:36:21;11.90;;;3.00;;
52396;SDS011;38322;53.108;6.308;2023-04-24T19:38:48;10.90;;;3.90;;
52396;SDS011;38322;53.108;6.308;2023-04-24T19:41:14;8.50;;;2.47;;
52396;SDS011;38322;53.108;6.308;2023-04-24T19:43:41;6.90;;;2.67;;
52396;SDS011;38322;53.108;6.308;2023-04-24T19:46:07;6.22;;;2.58;;
52396;SDS011;38322;53.108;6.308;2023-04-24T19:48:33;7.53;;;1.92;;
52396;SDS011;38322;53.108;6.308;2023-04-24T19:50:59;5.03;;;2.03;;
52396;SDS011;38322;53.108;6.308;2023-04-24T19:53:25;6.93;;;2.47;;
52396;SDS011;38322;53.108;6.308;2023-04-24T19:55:51;2.70;;;1.73;;
52396;SDS011;38322;53.108;6.308;2023-04-24T19:58:17;9.77;;;2.35;;
52396;SDS011;38322;53.108;6.308;2023-04-24T20:00:43;6.13;;;2.38;;
